Bookmark and Share
Track history (hours):
 

Grampian Pride

Last reported at 2014-Apr-17 18:30 UTC. Time now 2014-Apr-18 18:17 UTC.
Position N 57°08' W 002°04'.

Length 42 m; draft 4.8 m.

Type: SAR. MMSI: 232843000.

NotesDate/timePositionNaut miles runAvg speedWind from/ knotsBaromVisibWave heightAir tempDewpointWater temp
2014-Apr-17 18:30N 57°08' W 002°04'1 0.7
2014-Apr-17 17:33N 57°09' W 002°05'0 0.0
2014-Apr-17 16:33N 57°09' W 002°05'0 0.0
2014-Apr-17 15:33N 57°09' W 002°05'0 0.0
2014-Apr-17 14:34N 57°09' W 002°05'0 0.0
2014-Apr-17 13:33N 57°09' W 002°05'0 0.0
2014-Apr-17 12:33N 57°09' W 002°05'0 0.0
2014-Apr-17 09:08N 57°09' W 002°05'1 1.9
2014-Apr-17 08:32N 57°09' W 002°03'  
2014-Apr-13 19:06N 59°18' E 001°04'17 6.4
2014-Apr-13 16:28N 59°32' E 001°22'11 5.7
2014-Apr-13 14:27N 59°42' E 001°33'2 0.7
2014-Apr-13 12:18N 59°43' E 001°36'0 0.3
2014-Apr-13 11:18N 59°43' E 001°36'4 0.9
2014-Apr-13 07:07N 59°43' E 001°44'3 0.1
2014-Apr-12 06:21N 59°45' E 001°39'1 0.1
2014-Apr-11 20:30N 59°45' E 001°39'1 0.1
2014-Apr-11 13:18N 59°44' E 001°40'0 0.1
2014-Apr-11 07:24N 59°44' E 001°39'1 0.3
2014-Apr-11 04:21N 59°45' E 001°38'2 0.7
2014-Apr-11 01:09N 59°45' E 001°42'  

Dump ship's entire track history

sailing weather and tide predictions

Grampian Pride — GDDK — position and weather